CheckWX is a tool to help pilots better visualize weather data.  It is not intended as a substitute for an official pre-flight weather briefing.

00:28:44 UTC

DAOO TAF
Es Senia Airport
Oran, Algeria
TAF DAOO 252300Z 2600/2624 36008KT 9999 FEW026 BECMG 2601/2603 08010KT PROB30 TEMPO 2604/2608 3000 BR SCT010 PROB40 TEMPO 2611/2618 03018G30KT

Mar-26@
00:00 UTC

Mar-26 @ 00:00 UTC

Mar-26@
01:00 UTC

Mar-26 @ 01:00 UTC

TAF DAOO 252300Z 2600/2624 36008KT 9999 FEW026
Wind
  • 360° at 8 KTS
Cloud Levels
  • Few at 2,600' AGL

Mar-26@
01:00 UTC

Mar-26 @ 01:00 UTC

Mar-27@
00:00 UTC

Mar-27 @ 00:00 UTC

BECMG 2601/2603 08010KT

Becoming

Becoming Conditions expected by Tue, Mar 26, 2019 @ 03:00 UTC

Wind
  • 080° at 10 KTS
Cloud Levels
  • Few at 2,600' AGL

Mar-26@
04:00 UTC

Mar-26 @ 04:00 UTC

Mar-26@
08:00 UTC

Mar-26 @ 08:00 UTC

PROB30 TEMPO 2604/2608 3000 BR SCT010

Temporary - 30% Likelihood

Temporary - 30% Likelihood during this time.

Conditions
Mist
Cloud Levels
  • Scattered at 1,000' AGL

Mar-26@
11:00 UTC

Mar-26 @ 11:00 UTC

Mar-26@
18:00 UTC

Mar-26 @ 18:00 UTC

PROB40 TEMPO 2611/2618 03018G30KT

Temporary - 40% Likelihood

Temporary - 40% Likelihood during this time.

Wind
  • 030° at 18 KTS
  • {Gusting to 30 KTS